createdAt,value
2019-03-30T00:01:06.062Z,5.96
2019-03-30T00:03:35.786Z,5.84
2019-03-30T00:08:36.761Z,5.95
2019-03-30T00:11:06.481Z,5.98
2019-03-30T00:13:36.164Z,5.99
2019-03-30T00:16:05.853Z,5.95
2019-03-30T00:18:35.686Z,5.82
2019-03-30T00:21:05.598Z,5.69
2019-03-30T00:23:35.334Z,5.60
2019-03-30T00:26:05.190Z,5.51
2019-03-30T00:28:34.878Z,5.44
2019-03-30T00:31:04.742Z,5.36
2019-03-30T00:33:34.431Z,5.30
2019-03-30T00:36:04.410Z,5.33
2019-03-30T00:38:34.099Z,5.43
2019-03-30T00:41:03.829Z,5.46
2019-03-30T00:43:33.696Z,5.45
2019-03-30T00:46:03.390Z,5.45
2019-03-30T00:48:33.142Z,5.43
2019-03-30T00:51:03.030Z,5.39
2019-03-30T00:53:32.793Z,5.38
2019-03-30T00:56:02.522Z,5.33
2019-03-30T00:58:32.322Z,5.21
2019-03-30T01:01:02.176Z,5.16
2019-03-30T01:03:31.929Z,5.11
2019-03-30T01:06:01.690Z,4.99
2019-03-30T01:08:31.435Z,4.95
2019-03-30T01:11:01.311Z,5.01
2019-03-30T01:13:30.986Z,5.07
2019-03-30T01:16:00.779Z,5.00
2019-03-30T01:18:30.505Z,4.94
2019-03-30T01:21:00.377Z,4.86
2019-03-30T01:23:30.168Z,4.83
2019-03-30T01:25:59.872Z,4.78
2019-03-30T01:28:29.582Z,4.74
2019-03-30T01:30:59.577Z,4.73
2019-03-30T01:33:29.686Z,4.80
2019-03-30T01:35:59.436Z,4.81
2019-03-30T01:38:29.260Z,4.87
2019-03-30T01:40:59.039Z,4.86
2019-03-30T01:43:28.734Z,4.90
2019-03-30T01:45:58.596Z,4.94
2019-03-30T01:48:28.395Z,4.94
2019-03-30T01:50:58.071Z,4.88
2019-03-30T01:53:27.778Z,4.85
2019-03-30T01:55:57.494Z,4.78
2019-03-30T01:58:27.239Z,4.84
2019-03-30T02:00:56.941Z,4.82
2019-03-30T02:03:26.643Z,4.81
2019-03-30T02:05:56.370Z,4.83
2019-03-30T02:08:26.029Z,4.77
2019-03-30T02:10:55.738Z,4.55
2019-03-30T02:13:25.416Z,4.48
2019-03-30T02:15:55.372Z,4.54
2019-03-30T02:18:25.091Z,4.39
2019-03-30T02:20:54.803Z,4.28
2019-03-30T02:23:24.467Z,4.29
2019-03-30T02:25:54.161Z,4.29
2019-03-30T02:28:24.015Z,4.27
2019-03-30T02:30:53.676Z,4.29
2019-03-30T02:33:23.406Z,4.28
2019-03-30T02:35:53.192Z,4.34
2019-03-30T02:38:22.940Z,4.36
2019-03-30T02:40:52.600Z,4.40
2019-03-30T02:43:22.541Z,4.40
2019-03-30T02:45:52.187Z,4.44
2019-03-30T02:48:21.983Z,4.49
2019-03-30T02:50:51.703Z,4.33
2019-03-30T02:53:21.363Z,4.25
2019-03-30T02:55:51.049Z,4.22
2019-03-30T02:58:20.753Z,4.23
2019-03-30T03:00:50.462Z,4.13
2019-03-30T03:03:20.429Z,4.15
2019-03-30T03:05:50.111Z,4.21
2019-03-30T03:08:19.931Z,4.14
2019-03-30T03:10:49.808Z,4.05
2019-03-30T03:13:19.476Z,3.99
2019-03-30T03:15:49.159Z,3.83
2019-03-30T03:18:19.020Z,3.71
2019-03-30T03:21:06.134Z,3.71
2019-03-30T03:23:20.398Z,3.63
2019-03-30T03:25:50.099Z,3.65
2019-03-30T03:28:19.961Z,3.67
2019-03-30T03:30:49.699Z,3.59
2019-03-30T03:33:19.413Z,3.66
2019-03-30T03:35:49.138Z,3.58
2019-03-30T03:38:18.767Z,3.41
2019-03-30T03:40:48.466Z,3.35
2019-03-30T03:43:18.139Z,3.36
2019-03-30T03:45:47.835Z,3.44
2019-03-30T03:48:17.618Z,3.48
2019-03-30T03:50:49.506Z,3.55
2019-03-30T03:53:19.461Z,3.59
2019-03-30T03:55:49.261Z,3.66
2019-03-30T03:58:20.666Z,3.60
2019-03-30T04:00:53.486Z,3.61
2019-03-30T04:03:23.690Z,3.54
2019-03-30T04:05:56.278Z,3.38
2019-03-30T04:08:29.181Z,3.36
2019-03-30T04:10:59.744Z,3.37
2019-03-30T04:13:30.652Z,3.42
2019-03-30T04:16:00.319Z,3.25
2019-03-30T04:18:30.048Z,3.10
2019-03-30T04:20:59.712Z,3.01
2019-03-30T04:23:29.650Z,3.01
2019-03-30T04:25:59.625Z,2.99
2019-03-30T04:28:29.363Z,3.02
2019-03-30T04:30:59.208Z,3.02
2019-03-30T04:33:28.905Z,2.91
2019-03-30T04:35:58.558Z,2.84
2019-03-30T04:38:28.334Z,2.91
2019-03-30T04:40:58.045Z,2.93
2019-03-30T04:43:27.728Z,2.90
2019-03-30T04:45:57.676Z,2.94
2019-03-30T04:48:29.494Z,3.09
2019-03-30T04:50:59.029Z,3.07
2019-03-30T04:53:28.705Z,3.00
2019-03-30T04:55:58.443Z,2.95
2019-03-30T04:58:28.141Z,2.91
2019-03-30T05:00:57.821Z,2.85
2019-03-30T05:03:27.747Z,2.75
2019-03-30T05:05:57.444Z,2.80
2019-03-30T05:08:27.148Z,2.86
2019-03-30T05:10:56.830Z,2.81
2019-03-30T05:13:26.519Z,2.73
2019-03-30T05:15:56.419Z,2.63
2019-03-30T05:18:26.108Z,2.61
2019-03-30T05:20:56.082Z,2.58
2019-03-30T05:23:26.010Z,2.54
2019-03-30T05:25:55.698Z,2.62
2019-03-30T05:28:25.534Z,2.68
2019-03-30T05:30:55.213Z,2.68
2019-03-30T05:33:24.916Z,2.72
2019-03-30T05:35:54.574Z,2.69
2019-03-30T05:38:24.327Z,2.68
2019-03-30T05:40:54.037Z,2.81
2019-03-30T05:43:23.693Z,2.97
2019-03-30T05:45:53.455Z,3.10
2019-03-30T05:48:23.284Z,3.05
2019-03-30T05:50:52.986Z,3.08
2019-03-30T05:53:22.869Z,3.12
2019-03-30T05:55:52.711Z,3.27
2019-03-30T05:58:22.477Z,3.45
2019-03-30T06:00:52.153Z,3.49
2019-03-30T06:03:22.140Z,3.47
2019-03-30T06:05:51.853Z,3.32
2019-03-30T06:08:21.772Z,3.36
2019-03-30T06:10:51.468Z,3.37
2019-03-30T06:13:21.152Z,3.36
2019-03-30T06:15:53.875Z,3.32
2019-03-30T06:18:23.649Z,3.39
2019-03-30T06:20:53.446Z,3.60
2019-03-30T06:23:23.242Z,3.60
2019-03-30T06:25:53.025Z,3.67
2019-03-30T06:28:22.853Z,3.84
2019-03-30T06:30:52.509Z,4.00
2019-03-30T06:33:22.527Z,4.19
2019-03-30T06:35:52.261Z,4.49
2019-03-30T06:38:22.005Z,4.62
2019-03-30T06:40:51.692Z,4.72
2019-03-30T06:43:21.402Z,4.82
2019-03-30T06:45:51.360Z,5.03
2019-03-30T06:48:21.412Z,5.23
2019-03-30T06:50:51.133Z,5.38
2019-03-30T06:53:20.840Z,5.63
2019-03-30T06:55:50.591Z,5.90
2019-03-30T06:58:20.360Z,6.11
2019-03-30T07:00:51.439Z,6.28
2019-03-30T07:03:21.727Z,6.60
2019-03-30T07:05:52.602Z,6.92
2019-03-30T07:08:22.447Z,7.13
2019-03-30T07:10:52.135Z,7.47
2019-03-30T07:13:22.333Z,7.79
2019-03-30T07:15:52.190Z,8.31
2019-03-30T07:18:21.912Z,8.55
2019-03-30T07:20:52.261Z,8.79
2019-03-30T07:23:22.154Z,8.78
2019-03-30T07:25:51.849Z,8.77
2019-03-30T07:28:21.574Z,9.02
2019-03-30T07:30:51.291Z,9.37
2019-03-30T07:33:20.993Z,9.83
2019-03-30T07:35:50.784Z,10.12
2019-03-30T07:38:20.538Z,10.25
2019-03-30T07:40:50.330Z,10.35
2019-03-30T07:43:20.148Z,10.82
2019-03-30T07:45:49.886Z,11.16
2019-03-30T07:48:19.802Z,11.60
2019-03-30T07:50:49.589Z,12.12
2019-03-30T07:53:26.271Z,12.30
2019-03-30T07:55:50.742Z,12.20
2019-03-30T07:58:20.521Z,12.18
2019-03-30T08:00:50.246Z,12.47
2019-03-30T08:03:19.976Z,12.89
2019-03-30T08:05:49.729Z,13.19
2019-03-30T08:08:19.545Z,13.53
2019-03-30T08:10:49.434Z,13.69
2019-03-30T08:13:19.148Z,14.04
2019-03-30T08:15:49.049Z,14.23
2019-03-30T08:18:18.725Z,14.41
2019-03-30T08:20:48.732Z,14.38
2019-03-30T08:23:18.471Z,15.32
2019-03-30T08:25:48.170Z,16.02
2019-03-30T08:28:18.260Z,16.40
2019-03-30T08:30:48.022Z,16.98
2019-03-30T08:33:17.794Z,17.07
2019-03-30T08:35:47.515Z,16.69
2019-03-30T08:38:17.337Z,16.63
2019-03-30T08:40:47.082Z,17.09
2019-03-30T08:43:16.980Z,17.33
2019-03-30T08:45:48.959Z,17.40
2019-03-30T08:48:18.566Z,16.94
2019-03-30T08:50:49.792Z,17.20
2019-03-30T08:53:19.487Z,17.10
2019-03-30T08:55:49.236Z,17.07
2019-03-30T08:58:18.916Z,17.90
2019-03-30T09:00:48.710Z,17.97
2019-03-30T09:03:18.430Z,18.38
2019-03-30T09:05:48.178Z,18.71
2019-03-30T09:08:18.061Z,18.88
2019-03-30T09:10:47.831Z,18.69
2019-03-30T09:13:17.595Z,18.64
2019-03-30T09:15:47.404Z,18.88
2019-03-30T09:18:17.463Z,19.01
2019-03-30T09:20:47.210Z,19.54
2019-03-30T09:23:17.006Z,18.99
2019-03-30T09:25:46.752Z,19.35
2019-03-30T09:28:16.961Z,19.35
2019-03-30T09:30:46.784Z,19.87
2019-03-30T09:33:16.557Z,19.99
2019-03-30T09:35:46.413Z,20.25
2019-03-30T09:38:16.137Z,20.86
2019-03-30T09:40:45.862Z,21.10
2019-03-30T09:43:16.021Z,21.01
2019-03-30T09:45:45.713Z,21.10
2019-03-30T09:48:15.445Z,20.59
2019-03-30T09:50:45.631Z,20.96
2019-03-30T09:53:15.406Z,20.35
2019-03-30T09:55:45.138Z,21.61
2019-03-30T09:58:14.994Z,22.02
2019-03-30T10:00:44.994Z,22.54
2019-03-30T10:03:14.841Z,21.87
2019-03-30T10:05:44.856Z,21.74
2019-03-30T10:08:14.592Z,21.86
2019-03-30T10:10:44.341Z,21.89
2019-03-30T10:13:14.220Z,20.78
2019-03-30T10:15:43.940Z,21.84
2019-03-30T10:18:13.768Z,21.68
2019-03-30T10:20:43.456Z,20.90
2019-03-30T10:23:13.211Z,22.22
2019-03-30T10:25:42.981Z,22.21
2019-03-30T10:28:12.746Z,22.04
2019-03-30T10:30:42.503Z,21.95
2019-03-30T10:33:12.269Z,21.94
2019-03-30T10:35:42.081Z,20.23
2019-03-30T10:38:11.900Z,21.29
2019-03-30T10:40:42.213Z,22.57
2019-03-30T10:43:12.247Z,22.89
2019-03-30T10:45:42.011Z,23.10
2019-03-30T10:48:11.879Z,22.81
2019-03-30T10:50:41.605Z,23.34
2019-03-30T10:53:11.712Z,23.06
2019-03-30T10:55:41.445Z,23.08
2019-03-30T10:58:11.154Z,23.09
2019-03-30T11:00:41.814Z,23.66
2019-03-30T11:03:11.819Z,24.11
2019-03-30T11:05:41.738Z,23.85
2019-03-30T11:08:11.504Z,24.19
2019-03-30T11:10:41.359Z,24.23
2019-03-30T11:13:11.273Z,24.45
2019-03-30T11:15:41.062Z,24.31
2019-03-30T11:18:10.794Z,24.58
2019-03-30T11:20:41.321Z,24.40
2019-03-30T11:23:11.022Z,24.73
2019-03-30T11:25:40.755Z,24.50
2019-03-30T11:28:10.446Z,25.06
2019-03-30T11:30:40.335Z,25.27
2019-03-30T11:33:10.111Z,25.04
2019-03-30T11:35:40.014Z,24.73
2019-03-30T11:38:09.727Z,24.16
2019-03-30T11:40:39.437Z,23.12
2019-03-30T11:43:09.187Z,23.57
2019-03-30T11:45:38.985Z,22.79
2019-03-30T11:48:08.728Z,22.95
2019-03-30T11:50:38.451Z,23.90
2019-03-30T11:53:08.141Z,24.33
2019-03-30T11:55:37.867Z,23.93
2019-03-30T11:58:07.907Z,23.66
2019-03-30T12:00:37.652Z,24.23
2019-03-30T12:03:07.482Z,24.44
2019-03-30T12:05:37.518Z,24.11
2019-03-30T12:08:07.221Z,24.05
2019-03-30T12:10:37.233Z,23.10
2019-03-30T12:13:07.047Z,24.35
2019-03-30T12:15:36.756Z,24.07
2019-03-30T12:18:06.580Z,23.80
2019-03-30T12:20:36.305Z,24.84
2019-03-30T12:23:06.011Z,23.73
2019-03-30T12:25:36.337Z,23.76
2019-03-30T12:28:06.100Z,23.24
2019-03-30T12:30:35.874Z,22.54
2019-03-30T12:33:06.688Z,23.70
2019-03-30T12:35:37.765Z,23.96
2019-03-30T12:38:07.486Z,24.79
2019-03-30T12:40:37.170Z,25.29
2019-03-30T12:43:06.856Z,25.91
2019-03-30T12:45:36.696Z,25.41
2019-03-30T12:48:06.418Z,25.22
2019-03-30T12:50:36.191Z,25.28
2019-03-30T12:53:06.143Z,24.38
2019-03-30T12:55:48.561Z,24.73
2019-03-30T12:58:07.492Z,24.09
2019-03-30T13:00:37.321Z,25.66
2019-03-30T13:03:07.106Z,26.07
2019-03-30T13:05:36.895Z,25.56
2019-03-30T13:08:06.888Z,25.35
2019-03-30T13:10:36.600Z,25.34
2019-03-30T13:13:06.461Z,24.70
2019-03-30T13:15:36.163Z,24.24
2019-03-30T13:18:05.972Z,24.77
2019-03-30T13:20:35.807Z,24.55
2019-03-30T13:23:05.549Z,25.01
2019-03-30T13:25:35.329Z,24.12
2019-03-30T13:28:05.145Z,24.27
2019-03-30T13:30:34.853Z,24.79
2019-03-30T13:33:04.698Z,24.84
2019-03-30T13:35:34.845Z,24.27
2019-03-30T13:38:04.703Z,24.20
2019-03-30T13:40:34.411Z,23.51
2019-03-30T13:43:04.145Z,22.99
2019-03-30T13:45:33.909Z,24.42
2019-03-30T13:48:03.601Z,23.89
2019-03-30T13:50:33.331Z,24.80
2019-03-30T13:53:03.050Z,24.83
2019-03-30T13:55:32.876Z,24.46
2019-03-30T13:58:02.592Z,23.75
2019-03-30T14:00:32.253Z,23.83
2019-03-30T14:03:01.976Z,23.14
2019-03-30T14:05:31.702Z,24.20
2019-03-30T14:08:01.436Z,23.30
2019-03-30T14:10:31.192Z,23.41
2019-03-30T14:13:00.900Z,24.33
2019-03-30T14:15:30.763Z,24.74
2019-03-30T14:18:00.537Z,25.03
2019-03-30T14:20:30.533Z,22.74
2019-03-30T14:23:00.230Z,22.74
2019-03-30T14:25:29.937Z,23.27
2019-03-30T14:27:59.664Z,23.68
2019-03-30T14:30:29.420Z,23.17
2019-03-30T14:32:59.144Z,23.01
2019-03-30T14:35:29.002Z,22.22
2019-03-30T14:38:00.531Z,23.09
2019-03-30T14:40:30.297Z,23.76
2019-03-30T14:43:00.132Z,24.16
2019-03-30T14:45:29.873Z,24.06
2019-03-30T14:47:59.649Z,24.02
2019-03-30T14:50:29.545Z,24.05
2019-03-30T14:52:59.359Z,23.36
2019-03-30T14:55:29.073Z,23.02
2019-03-30T14:57:58.821Z,23.43
2019-03-30T15:00:28.702Z,22.58
2019-03-30T15:02:58.600Z,22.70
2019-03-30T15:05:28.372Z,22.83
2019-03-30T15:07:58.072Z,22.75
2019-03-30T15:10:27.772Z,22.16
2019-03-30T15:12:57.580Z,21.59
2019-03-30T15:15:27.406Z,21.77
2019-03-30T15:17:57.160Z,21.82
2019-03-30T15:20:26.872Z,22.02
2019-03-30T15:22:56.612Z,22.20
2019-03-30T15:25:26.330Z,22.69
2019-03-30T15:27:56.042Z,22.78
2019-03-30T15:30:25.759Z,22.37
2019-03-30T15:32:55.844Z,22.54
2019-03-30T15:35:26.091Z,22.99
2019-03-30T15:37:55.991Z,22.94
2019-03-30T15:40:25.686Z,22.68
2019-03-30T15:42:56.093Z,22.56
2019-03-30T15:45:25.965Z,21.91
2019-03-30T15:47:55.728Z,21.67
2019-03-30T15:50:25.436Z,21.76
2019-03-30T15:52:55.757Z,21.84
2019-03-30T15:55:25.771Z,22.08
2019-03-30T15:57:55.489Z,22.16
2019-03-30T16:00:25.265Z,22.23
2019-03-30T16:02:54.989Z,22.02
2019-03-30T16:05:24.735Z,22.08
2019-03-30T16:07:54.505Z,21.92
2019-03-30T16:10:24.342Z,21.94
2019-03-30T16:12:54.069Z,21.86
2019-03-30T16:15:24.046Z,21.80
2019-03-30T16:17:53.737Z,21.35
2019-03-30T16:20:23.503Z,21.38
2019-03-30T16:22:53.248Z,21.38
2019-03-30T16:25:23.231Z,21.35
2019-03-30T16:27:53.102Z,20.96
2019-03-30T16:30:22.975Z,20.77
2019-03-30T16:32:52.828Z,20.69
2019-03-30T16:35:22.588Z,20.58
2019-03-30T16:37:52.531Z,20.48
2019-03-30T16:40:22.293Z,20.45
2019-03-30T16:42:51.973Z,20.33
2019-03-30T16:45:21.903Z,20.25
2019-03-30T16:47:51.719Z,20.18
2019-03-30T16:50:21.815Z,20.25
2019-03-30T16:52:51.534Z,20.33
2019-03-30T16:55:21.215Z,20.42
2019-03-30T16:57:50.966Z,20.50
2019-03-30T17:00:20.779Z,20.53
2019-03-30T17:02:50.505Z,20.37
2019-03-30T17:05:20.420Z,20.22
2019-03-30T17:07:50.155Z,20.22
2019-03-30T17:10:20.036Z,20.34
2019-03-30T17:12:49.817Z,20.29
2019-03-30T17:15:19.552Z,20.31
2019-03-30T17:17:49.264Z,20.10
2019-03-30T17:20:19.076Z,19.97
2019-03-30T17:22:48.768Z,19.82
2019-03-30T17:25:18.719Z,19.76
2019-03-30T17:27:58.001Z,19.65
2019-03-30T17:30:20.083Z,19.59
2019-03-30T17:32:50.925Z,19.40
2019-03-30T17:35:20.697Z,19.27
2019-03-30T17:37:50.445Z,19.06
2019-03-30T17:40:20.302Z,18.76
2019-03-30T17:42:50.143Z,18.37
2019-03-30T17:45:20.417Z,18.06
2019-03-30T17:47:50.153Z,17.71
2019-03-30T17:50:19.911Z,17.39
2019-03-30T17:52:49.650Z,17.04
2019-03-30T17:55:32.776Z,16.65
2019-03-30T17:57:51.033Z,16.33
2019-03-30T18:00:21.031Z,16.02
2019-03-30T18:02:50.766Z,15.79
2019-03-30T18:05:20.574Z,15.50
2019-03-30T18:07:50.292Z,15.22
2019-03-30T18:10:20.075Z,15.04
2019-03-30T18:12:49.785Z,14.87
2019-03-30T18:15:19.551Z,14.64
2019-03-30T18:17:49.405Z,14.44
2019-03-30T18:20:19.091Z,14.26
2019-03-30T18:22:48.992Z,14.12
2019-03-30T18:25:18.921Z,13.92
2019-03-30T18:27:48.903Z,13.73
2019-03-30T18:30:25.287Z,13.66
2019-03-30T18:32:55.092Z,13.58
2019-03-30T18:35:24.945Z,13.39
2019-03-30T18:37:55.653Z,13.23
2019-03-30T18:40:29.358Z,13.11
2019-03-30T18:42:59.738Z,12.99
2019-03-30T18:45:30.082Z,12.83
2019-03-30T18:48:11.747Z,12.70
2019-03-30T18:50:41.868Z,12.63
2019-03-30T18:53:11.850Z,12.53
2019-03-30T18:55:41.948Z,12.48
2019-03-30T18:58:11.849Z,12.34
2019-03-30T19:00:41.602Z,12.23
2019-03-30T19:03:11.473Z,12.16
2019-03-30T19:05:41.510Z,12.09
2019-03-30T19:08:11.176Z,12.08
2019-03-30T19:10:40.965Z,11.96
2019-03-30T19:13:11.570Z,11.88
2019-03-30T19:15:41.324Z,11.77
2019-03-30T19:18:11.329Z,11.73
2019-03-30T19:20:41.205Z,11.65
2019-03-30T19:23:11.107Z,11.58
2019-03-30T19:25:40.887Z,11.47
2019-03-30T19:28:10.646Z,11.41
2019-03-30T19:30:42.236Z,11.37
2019-03-30T19:33:11.903Z,11.28
2019-03-30T19:35:41.687Z,11.28
2019-03-30T19:38:11.596Z,11.26
2019-03-30T19:40:41.421Z,11.15
2019-03-30T19:43:11.221Z,10.99
2019-03-30T19:45:40.994Z,10.94
2019-03-30T19:48:10.848Z,10.92
2019-03-30T19:50:40.633Z,10.90
2019-03-30T19:53:10.534Z,10.74
2019-03-30T19:55:40.765Z,10.58
2019-03-30T19:58:10.665Z,10.46
2019-03-30T20:00:40.489Z,10.40
2019-03-30T20:03:10.253Z,10.30
2019-03-30T20:05:40.190Z,10.24
2019-03-30T20:08:12.300Z,10.15
2019-03-30T20:10:41.596Z,10.15
2019-03-30T20:13:11.607Z,10.05
2019-03-30T20:15:41.346Z,9.97
2019-03-30T20:18:11.233Z,9.99
2019-03-30T20:20:40.984Z,10.08
2019-03-30T20:23:10.892Z,10.08
2019-03-30T20:25:40.604Z,10.07
2019-03-30T20:28:10.401Z,10.03
2019-03-30T20:30:40.249Z,9.95
2019-03-30T20:33:10.040Z,9.85
2019-03-30T20:35:39.779Z,9.76
2019-03-30T20:38:09.754Z,9.81
2019-03-30T20:40:39.485Z,9.76
2019-03-30T20:43:09.249Z,9.69
2019-03-30T20:45:41.261Z,9.53
2019-03-30T20:48:11.269Z,9.45
2019-03-30T20:50:40.998Z,9.29
2019-03-30T20:53:10.904Z,9.13
2019-03-30T20:55:40.699Z,9.09
2019-03-30T20:58:10.507Z,9.04
2019-03-30T21:00:40.463Z,9.16
2019-03-30T21:03:10.237Z,9.20
2019-03-30T21:05:40.030Z,9.17
2019-03-30T21:08:09.753Z,9.13
2019-03-30T21:10:39.616Z,9.07
2019-03-30T21:13:09.319Z,8.94
2019-03-30T21:15:39.145Z,8.86
2019-03-30T21:18:08.836Z,8.85
2019-03-30T21:20:38.576Z,8.99
2019-03-30T21:23:08.372Z,9.06
2019-03-30T21:25:39.188Z,9.07
2019-03-30T21:28:08.995Z,9.11
2019-03-30T21:30:38.817Z,8.97
2019-03-30T21:33:08.510Z,8.83
2019-03-30T21:35:41.131Z,8.67
2019-03-30T21:38:10.814Z,8.67
2019-03-30T21:40:40.533Z,8.66
2019-03-30T21:43:10.315Z,8.53
2019-03-30T21:45:41.509Z,8.36
2019-03-30T21:48:11.267Z,8.30
2019-03-30T21:50:40.987Z,8.36
2019-03-30T21:53:10.756Z,8.35
2019-03-30T21:55:40.500Z,8.38
2019-03-30T21:58:10.679Z,8.28
2019-03-30T22:00:41.016Z,8.18
2019-03-30T22:03:10.658Z,8.02
2019-03-30T22:05:40.496Z,7.89
2019-03-30T22:08:10.303Z,7.79
2019-03-30T22:10:40.918Z,7.70
2019-03-30T22:13:10.664Z,7.79
2019-03-30T22:15:40.411Z,7.86
2019-03-30T22:18:10.130Z,7.79
2019-03-30T22:20:40.019Z,7.66
2019-03-30T22:23:09.742Z,7.56
2019-03-30T22:25:39.518Z,7.59
2019-03-30T22:28:09.234Z,7.65
2019-03-30T22:30:38.959Z,7.60
2019-03-30T22:33:08.734Z,7.53
2019-03-30T22:35:38.528Z,7.38
2019-03-30T22:38:08.366Z,7.24
2019-03-30T22:40:41.296Z,7.29
2019-03-30T22:43:09.515Z,7.31
2019-03-30T22:45:39.201Z,7.18
2019-03-30T22:48:08.944Z,7.02
2019-03-30T22:50:38.716Z,6.97
2019-03-30T22:53:08.427Z,6.98
2019-03-30T22:55:40.599Z,6.88
2019-03-30T22:58:10.353Z,6.80
2019-03-30T23:00:57.543Z,6.78
2019-03-30T23:03:27.245Z,6.79
2019-03-30T23:05:57.005Z,6.89
2019-03-30T23:08:26.804Z,6.94
2019-03-30T23:10:56.500Z,6.99
2019-03-30T23:13:26.359Z,6.91
2019-03-30T23:15:56.225Z,6.78
2019-03-30T23:18:26.115Z,6.72
2019-03-30T23:20:55.832Z,6.76
2019-03-30T23:23:25.642Z,6.89
2019-03-30T23:25:55.396Z,6.94
2019-03-30T23:28:25.109Z,6.90
2019-03-30T23:30:54.986Z,6.76
2019-03-30T23:33:24.702Z,6.63
2019-03-30T23:35:54.397Z,6.52
2019-03-30T23:38:24.091Z,6.53
2019-03-30T23:40:53.803Z,6.59
2019-03-30T23:43:23.541Z,6.68
2019-03-30T23:45:53.351Z,6.70
2019-03-30T23:48:23.047Z,6.68
2019-03-30T23:50:52.783Z,6.58
2019-03-30T23:53:22.575Z,6.41
2019-03-30T23:55:52.596Z,6.33
2019-03-30T23:58:22.298Z,6.34
